ESSA Airport Information

Runway Information
Runway 01R Length 8201 ft width 148 ft
Elevation 137 ft Threshold ft Heading 10
Runway 19L Length 8201 ft Width 148 ft
Elevation 98 ft Threshold ft Heading 190
Runway 01L Length 10830 ft width 148 ft
Elevation 98 ft Threshold ft Heading 10
Runway 19R Length 10830 ft Width 148 ft
Elevation 118 ft Threshold ft Heading 190
Runway 08 Length 8202 ft width 148 ft
Elevation 108 ft Threshold ft Heading 76
Runway 26 Length 8202 ft Width 148 ft
Elevation 124 ft Threshold ft Heading 256
Airport Frequencies
Type APP Name STOCKHOLM Frequency 123.75 MHZ
Type ATIS Name ATIS Frequency 119 MHZ
Type CLD Name CLNC DEL Frequency 121.825 MHZ
Type GND Name GND Frequency 121.7 MHZ
Type PMSV Name MET OFFICE Frequency 122.6 MHZ
Type TWR Name TWR Frequency 118.5 MHZ
Airport Navaids
Type VOR-DME Name Arlanda Frequency 116000 KHZ
Type NDB Name Arlanda Frequency 352 KHZ
Type NDB Name Arlanda Frequency 360 KHZ
Type NDB Name Arlanda Frequency 404 KHZ
Type NDB Name Arlanda Frequency 370 KHZ
Airport Weather Information & NOTAM
ADDS - METARS form results

(0034 UTC 30 September 2022)
Data provider http://aviationweather.gov/metar/data/
 
METAR text: ESSA 300020Z 28004KT CAVOK 06/05 Q1007 NOSIG
Conditions at: ESSA (STOCKHOLM/ARLAND, SE) observed 0020 UTC 30 September 2022
Temperature: 6.0°C (43°F)
Dewpoint: 5.0°C (41°F) [RH = 93%]
Pressure (altimeter): 29.73 inches Hg (1007.0 mb)
Winds: from the W (280 degrees) at 5 MPH (4 knots; 2.1 m/s)
Visibility: 6 or more miles (10+ km)
Ceiling: ceiling and visibility are OK
Clouds: unknown
Weather: no significant weather observed at this time

METAR text: ESSA 292350Z 31005KT CAVOK 06/04 Q1007 NOSIG
Conditions at: ESSA (STOCKHOLM/ARLAND, SE) observed 2350 UTC 29 September 2022
Temperature: 6.0°C (43°F)
Dewpoint: 4.0°C (39°F) [RH = 87%]
Pressure (altimeter): 29.73 inches Hg (1007.0 mb)
Winds: from the NW (310 degrees) at 6 MPH (5 knots; 2.6 m/s)
Visibility: 6 or more miles (10+ km)
Ceiling: ceiling and visibility are OK
Clouds: unknown
Weather: no significant weather observed at this time

Forecast for: ESSA (STOCKHOLM/ARLAND, SE)
Text: TAF ESSA 292330Z 3000/3024 32006KT 9999 FEW030
Forecast period: 0000 UTC 30 September 2022 to 0000 UTC 01 October 2022
Forecast type: FROM: standard forecast or significant change
Winds: from the NW (320 degrees) at 7 MPH (6 knots; 3.1 m/s)
Visibility: 6 or more miles (10+ km)
Ceiling: at least 12,000 feet AGL
Clouds: few clouds at 3000 feet AGL
Weather: no significant weather forecast for this period
Text: PROB40 3000/3006 2000 BCFG
Forecast period: 0000 to 0600 UTC 30 September 2022
Forecast type: PROBABLE: 40 percent likelihood of the following during this time
Visibility: 1.24 miles (2.00 km)
Ceiling: unknown
Clouds: missing
Weather: BCFG  (patches of fog)